sensor_id;sensor_type;location;lat;lon;timestamp;temperature;humidity
1468;DHT22;727;48.892;9.544;2022-07-22T00:00:05;17.20;99.90
1468;DHT22;727;48.892;9.544;2022-07-22T00:02:33;17.10;99.90
1468;DHT22;727;48.892;9.544;2022-07-22T00:05:00;17.10;99.90
1468;DHT22;727;48.892;9.544;2022-07-22T00:07:27;17.10;99.90
1468;DHT22;727;48.892;9.544;2022-07-22T00:09:54;17.10;99.90
1468;DHT22;727;48.892;9.544;2022-07-22T00:12:21;17.10;99.90
1468;DHT22;727;48.892;9.544;2022-07-22T00:14:47;17.10;99.90
1468;DHT22;727;48.892;9.544;2022-07-22T00:17:14;17.10;99.90
1468;DHT22;727;48.892;9.544;2022-07-22T00:19:42;17.10;99.90
1468;DHT22;727;48.892;9.544;2022-07-22T00:22:09;17.00;99.90
1468;DHT22;727;48.892;9.544;2022-07-22T00:24:35;17.00;99.90
1468;DHT22;727;48.892;9.544;2022-07-22T00:27:02;17.00;99.90
1468;DHT22;727;48.892;9.544;2022-07-22T00:29:29;16.90;99.90
1468;DHT22;727;48.892;9.544;2022-07-22T00:31:56;16.90;99.90
1468;DHT22;727;48.892;9.544;2022-07-22T00:34:22;16.90;99.90
1468;DHT22;727;48.892;9.544;2022-07-22T00:36:50;16.90;99.90
1468;DHT22;727;48.892;9.544;2022-07-22T00:39:17;16.90;99.90
1468;DHT22;727;48.892;9.544;2022-07-22T00:41:44;16.90;99.90
1468;DHT22;727;48.892;9.544;2022-07-22T00:44:11;16.90;99.90
1468;DHT22;727;48.892;9.544;2022-07-22T00:46:38;16.90;99.90
1468;DHT22;727;48.892;9.544;2022-07-22T00:49:07;17.00;99.90
1468;DHT22;727;48.892;9.544;2022-07-22T00:51:34;17.00;99.90
1468;DHT22;727;48.892;9.544;2022-07-22T00:54:04;16.90;99.90
1468;DHT22;727;48.892;9.544;2022-07-22T00:56:31;16.90;99.90
1468;DHT22;727;48.892;9.544;2022-07-22T00:59:01;16.90;99.90
1468;DHT22;727;48.892;9.544;2022-07-22T01:01:28;16.80;99.90
1468;DHT22;727;48.892;9.544;2022-07-22T01:03:55;16.80;99.90
1468;DHT22;727;48.892;9.544;2022-07-22T01:06:22;16.80;99.90
1468;DHT22;727;48.892;9.544;2022-07-22T01:08:49;16.70;99.90
1468;DHT22;727;48.892;9.544;2022-07-22T01:11:18;16.80;99.90
1468;DHT22;727;48.892;9.544;2022-07-22T01:13:47;16.80;99.90
1468;DHT22;727;48.892;9.544;2022-07-22T01:16:15;16.80;99.90
1468;DHT22;727;48.892;9.544;2022-07-22T01:18:43;16.80;99.90
1468;DHT22;727;48.892;9.544;2022-07-22T01:21:12;16.70;99.90
1468;DHT22;727;48.892;9.544;2022-07-22T01:23:40;16.70;99.90
1468;DHT22;727;48.892;9.544;2022-07-22T01:26:07;16.70;99.90
1468;DHT22;727;48.892;9.544;2022-07-22T01:28:34;16.60;99.90
1468;DHT22;727;48.892;9.544;2022-07-22T01:31:00;16.60;99.90
1468;DHT22;727;48.892;9.544;2022-07-22T01:33:27;16.60;99.90
1468;DHT22;727;48.892;9.544;2022-07-22T01:35:54;16.50;99.90
1468;DHT22;727;48.892;9.544;2022-07-22T01:38:22;16.50;99.90
1468;DHT22;727;48.892;9.544;2022-07-22T01:40:49;16.50;99.90
1468;DHT22;727;48.892;9.544;2022-07-22T01:43:16;16.50;99.90
1468;DHT22;727;48.892;9.544;2022-07-22T01:45:48;16.40;99.90
1468;DHT22;727;48.892;9.544;2022-07-22T01:48:15;16.40;99.90
1468;DHT22;727;48.892;9.544;2022-07-22T01:50:42;16.30;99.90
1468;DHT22;727;48.892;9.544;2022-07-22T01:53:09;16.30;99.90
1468;DHT22;727;48.892;9.544;2022-07-22T01:55:37;16.30;99.90
1468;DHT22;727;48.892;9.544;2022-07-22T01:58:04;16.20;99.90
1468;DHT22;727;48.892;9.544;2022-07-22T02:00:31;16.20;99.90
1468;DHT22;727;48.892;9.544;2022-07-22T02:02:58;16.10;99.90
1468;DHT22;727;48.892;9.544;2022-07-22T02:05:25;16.20;99.90
1468;DHT22;727;48.892;9.544;2022-07-22T02:07:52;16.10;99.90
1468;DHT22;727;48.892;9.544;2022-07-22T02:10:19;16.10;99.90
1468;DHT22;727;48.892;9.544;2022-07-22T02:12:47;16.10;99.90
1468;DHT22;727;48.892;9.544;2022-07-22T02:15:13;16.10;99.90
1468;DHT22;727;48.892;9.544;2022-07-22T02:17:40;16.10;99.90
1468;DHT22;727;48.892;9.544;2022-07-22T02:20:08;16.10;99.90
1468;DHT22;727;48.892;9.544;2022-07-22T02:22:35;16.00;99.90
1468;DHT22;727;48.892;9.544;2022-07-22T02:25:01;16.00;99.90
1468;DHT22;727;48.892;9.544;2022-07-22T02:27:28;16.10;99.90
1468;DHT22;727;48.892;9.544;2022-07-22T02:29:56;16.00;99.90
1468;DHT22;727;48.892;9.544;2022-07-22T02:32:24;16.00;99.90
1468;DHT22;727;48.892;9.544;2022-07-22T02:34:51;16.00;99.90
1468;DHT22;727;48.892;9.544;2022-07-22T02:37:17;16.10;99.90
1468;DHT22;727;48.892;9.544;2022-07-22T02:39:44;16.00;99.90
1468;DHT22;727;48.892;9.544;2022-07-22T02:42:11;16.00;99.90
1468;DHT22;727;48.892;9.544;2022-07-22T02:44:37;16.00;99.90
1468;DHT22;727;48.892;9.544;2022-07-22T02:47:05;16.00;99.90
1468;DHT22;727;48.892;9.544;2022-07-22T02:49:32;16.00;99.90
1468;DHT22;727;48.892;9.544;2022-07-22T02:51:59;15.90;99.90
1468;DHT22;727;48.892;9.544;2022-07-22T02:54:26;15.90;99.90
1468;DHT22;727;48.892;9.544;2022-07-22T02:56:52;15.90;99.90
1468;DHT22;727;48.892;9.544;2022-07-22T02:59:19;15.90;99.90
1468;DHT22;727;48.892;9.544;2022-07-22T03:01:46;15.90;99.90
1468;DHT22;727;48.892;9.544;2022-07-22T03:04:14;15.80;99.90
1468;DHT22;727;48.892;9.544;2022-07-22T03:06:41;15.80;99.90
1468;DHT22;727;48.892;9.544;2022-07-22T03:09:07;15.80;99.90
1468;DHT22;727;48.892;9.544;2022-07-22T03:11:34;15.80;99.90
1468;DHT22;727;48.892;9.544;2022-07-22T03:14:01;15.80;99.90
1468;DHT22;727;48.892;9.544;2022-07-22T03:16:27;15.80;99.90
1468;DHT22;727;48.892;9.544;2022-07-22T03:18:54;15.80;99.90
1468;DHT22;727;48.892;9.544;2022-07-22T03:21:22;15.80;99.90
1468;DHT22;727;48.892;9.544;2022-07-22T03:23:49;15.80;99.90
1468;DHT22;727;48.892;9.544;2022-07-22T03:26:19;15.70;99.90
1468;DHT22;727;48.892;9.544;2022-07-22T03:28:45;15.70;99.90
1468;DHT22;727;48.892;9.544;2022-07-22T03:31:12;15.70;99.90
1468;DHT22;727;48.892;9.544;2022-07-22T03:33:39;15.70;99.90
1468;DHT22;727;48.892;9.544;2022-07-22T03:36:07;15.70;99.90
1468;DHT22;727;48.892;9.544;2022-07-22T03:38:36;15.70;99.90
1468;DHT22;727;48.892;9.544;2022-07-22T03:41:03;15.70;99.90
1468;DHT22;727;48.892;9.544;2022-07-22T03:43:30;15.70;99.90
1468;DHT22;727;48.892;9.544;2022-07-22T03:45:57;15.60;99.90
1468;DHT22;727;48.892;9.544;2022-07-22T03:48:24;15.60;99.90
1468;DHT22;727;48.892;9.544;2022-07-22T03:50:51;15.60;99.90
1468;DHT22;727;48.892;9.544;2022-07-22T03:53:18;15.60;99.90
1468;DHT22;727;48.892;9.544;2022-07-22T03:55:47;15.60;99.90
1468;DHT22;727;48.892;9.544;2022-07-22T03:58:13;15.60;99.90
1468;DHT22;727;48.892;9.544;2022-07-22T04:00:42;15.60;99.90
1468;DHT22;727;48.892;9.544;2022-07-22T04:03:08;15.70;99.90
1468;DHT22;727;48.892;9.544;2022-07-22T04:05:35;15.70;99.90
1468;DHT22;727;48.892;9.544;2022-07-22T04:08:02;15.70;99.90
1468;DHT22;727;48.892;9.544;2022-07-22T04:10:28;15.70;99.90
1468;DHT22;727;48.892;9.544;2022-07-22T04:12:57;15.80;99.90
1468;DHT22;727;48.892;9.544;2022-07-22T04:15:23;15.80;99.90
1468;DHT22;727;48.892;9.544;2022-07-22T04:17:50;15.90;99.90
1468;DHT22;727;48.892;9.544;2022-07-22T04:20:17;15.90;99.90
1468;DHT22;727;48.892;9.544;2022-07-22T04:22:44;15.90;99.90
1468;DHT22;727;48.892;9.544;2022-07-22T04:25:10;15.90;99.90
1468;DHT22;727;48.892;9.544;2022-07-22T04:27:37;16.00;99.90
1468;DHT22;727;48.892;9.544;2022-07-22T04:30:06;16.20;99.90
1468;DHT22;727;48.892;9.544;2022-07-22T04:32:33;17.00;99.90
1468;DHT22;727;48.892;9.544;2022-07-22T04:35:00;17.80;99.90
1468;DHT22;727;48.892;9.544;2022-07-22T04:37:27;18.10;99.90
1468;DHT22;727;48.892;9.544;2022-07-22T04:39:53;18.00;99.90
1468;DHT22;727;48.892;9.544;2022-07-22T04:42:20;18.00;99.90
1468;DHT22;727;48.892;9.544;2022-07-22T04:44:47;18.20;99.90
1468;DHT22;727;48.892;9.544;2022-07-22T04:47:15;18.90;99.90
1468;DHT22;727;48.892;9.544;2022-07-22T04:49:41;19.70;99.90
1468;DHT22;727;48.892;9.544;2022-07-22T04:52:08;20.40;99.90
1468;DHT22;727;48.892;9.544;2022-07-22T04:54:35;21.10;99.90
1468;DHT22;727;48.892;9.544;2022-07-22T04:57:02;21.70;98.90
1468;DHT22;727;48.892;9.544;2022-07-22T04:59:29;22.10;97.70
1468;DHT22;727;48.892;9.544;2022-07-22T05:01:56;22.50;96.10
1468;DHT22;727;48.892;9.544;2022-07-22T05:04:24;22.90;95.20
1468;DHT22;727;48.892;9.544;2022-07-22T05:06:50;23.50;93.80
1468;DHT22;727;48.892;9.544;2022-07-22T05:09:17;23.70;92.50
1468;DHT22;727;48.892;9.544;2022-07-22T05:11:44;23.80;91.90
1468;DHT22;727;48.892;9.544;2022-07-22T05:14:10;24.10;91.40
1468;DHT22;727;48.892;9.544;2022-07-22T05:16:37;24.80;90.50
1468;DHT22;727;48.892;9.544;2022-07-22T05:19:04;25.60;86.90
1468;DHT22;727;48.892;9.544;2022-07-22T05:21:33;25.70;84.20
1468;DHT22;727;48.892;9.544;2022-07-22T05:23:59;26.20;82.70
1468;DHT22;727;48.892;9.544;2022-07-22T05:26:27;26.60;80.50
1468;DHT22;727;48.892;9.544;2022-07-22T05:28:55;26.80;78.80
1468;DHT22;727;48.892;9.544;2022-07-22T05:31:22;27.20;77.30
1468;DHT22;727;48.892;9.544;2022-07-22T05:33:49;27.60;75.70
1468;DHT22;727;48.892;9.544;2022-07-22T05:36:15;27.80;74.70
1468;DHT22;727;48.892;9.544;2022-07-22T05:38:44;28.40;71.90
1468;DHT22;727;48.892;9.544;2022-07-22T05:41:10;28.40;71.20
1468;DHT22;727;48.892;9.544;2022-07-22T05:43:37;28.20;71.40
1468;DHT22;727;48.892;9.544;2022-07-22T05:46:04;28.30;71.40
1468;DHT22;727;48.892;9.544;2022-07-22T05:48:32;28.60;70.10
1468;DHT22;727;48.892;9.544;2022-07-22T05:50:59;28.60;70.80
1468;DHT22;727;48.892;9.544;2022-07-22T05:53:26;28.70;69.10
1468;DHT22;727;48.892;9.544;2022-07-22T05:55:54;28.60;69.50
1468;DHT22;727;48.892;9.544;2022-07-22T05:58:21;28.40;70.10
1468;DHT22;727;48.892;9.544;2022-07-22T06:00:47;28.30;70.20
1468;DHT22;727;48.892;9.544;2022-07-22T06:03:14;28.00;71.10
1468;DHT22;727;48.892;9.544;2022-07-22T06:05:41;27.90;71.40
1468;DHT22;727;48.892;9.544;2022-07-22T06:08:07;28.20;71.80
1468;DHT22;727;48.892;9.544;2022-07-22T06:10:34;28.20;70.90
1468;DHT22;727;48.892;9.544;2022-07-22T06:13:02;28.00;71.80
1468;DHT22;727;48.892;9.544;2022-07-22T06:15:29;28.00;71.60
1468;DHT22;727;48.892;9.544;2022-07-22T06:17:56;27.10;73.40
1468;DHT22;727;48.892;9.544;2022-07-22T06:20:23;26.80;75.80
1468;DHT22;727;48.892;9.544;2022-07-22T06:22:49;26.60;76.70
1468;DHT22;727;48.892;9.544;2022-07-22T06:25:16;26.20;76.80
1468;DHT22;727;48.892;9.544;2022-07-22T06:27:43;25.50;79.80
1468;DHT22;727;48.892;9.544;2022-07-22T06:30:12;25.30;81.70
1468;DHT22;727;48.892;9.544;2022-07-22T06:32:39;25.00;82.80
1468;DHT22;727;48.892;9.544;2022-07-22T06:35:06;24.90;84.10
1468;DHT22;727;48.892;9.544;2022-07-22T06:37:33;24.90;84.40
1468;DHT22;727;48.892;9.544;2022-07-22T07:03:21;25.70;83.20
1468;DHT22;727;48.892;9.544;2022-07-22T07:06:11;25.70;83.90
1468;DHT22;727;48.892;9.544;2022-07-22T07:19:04;26.10;82.00
1468;DHT22;727;48.892;9.544;2022-07-22T07:21:31;26.20;81.40
1468;DHT22;727;48.892;9.544;2022-07-22T07:44:45;27.80;76.90
1468;DHT22;727;48.892;9.544;2022-07-22T08:50:02;30.50;66.90
1468;DHT22;727;48.892;9.544;2022-07-22T10:09:25;32.60;57.10
1468;DHT22;727;48.892;9.544;2022-07-22T10:11:55;32.70;58.50
1468;DHT22;727;48.892;9.544;2022-07-22T10:14:30;32.70;55.90
1468;DHT22;727;48.892;9.544;2022-07-22T10:17:00;32.50;55.40
1468;DHT22;727;48.892;9.544;2022-07-22T10:19:48;32.30;56.90
1468;DHT22;727;48.892;9.544;2022-07-22T10:22:50;32.30;55.60
1468;DHT22;727;48.892;9.544;2022-07-22T11:09:38;33.30;53.30
1468;DHT22;727;48.892;9.544;2022-07-22T11:12:19;33.50;51.70
1468;DHT22;727;48.892;9.544;2022-07-22T11:51:01;34.50;47.60
1468;DHT22;727;48.892;9.544;2022-07-22T11:53:29;34.70;47.60
1468;DHT22;727;48.892;9.544;2022-07-22T11:58:39;34.80;47.40
1468;DHT22;727;48.892;9.544;2022-07-22T12:55:36;35.40;45.90
1468;DHT22;727;48.892;9.544;2022-07-22T13:03:22;35.60;44.10
1468;DHT22;727;48.892;9.544;2022-07-22T13:08:22;35.30;45.30
1468;DHT22;727;48.892;9.544;2022-07-22T13:10:52;35.30;45.20
1468;DHT22;727;48.892;9.544;2022-07-22T13:15:51;35.60;44.60
1468;DHT22;727;48.892;9.544;2022-07-22T13:18:18;35.70;44.70
1468;DHT22;727;48.892;9.544;2022-07-22T13:20:45;35.40;44.10
1468;DHT22;727;48.892;9.544;2022-07-22T13:23:12;35.30;44.60
1468;DHT22;727;48.892;9.544;2022-07-22T13:25:39;35.40;44.00
1468;DHT22;727;48.892;9.544;2022-07-22T13:28:07;35.30;44.70
1468;DHT22;727;48.892;9.544;2022-07-22T13:30:33;34.90;44.40
1468;DHT22;727;48.892;9.544;2022-07-22T13:33:00;34.90;44.30
1468;DHT22;727;48.892;9.544;2022-07-22T13:35:27;35.10;43.90
1468;DHT22;727;48.892;9.544;2022-07-22T13:37:55;35.00;43.70
1468;DHT22;727;48.892;9.544;2022-07-22T13:40:21;34.80;44.10
1468;DHT22;727;48.892;9.544;2022-07-22T13:42:48;34.70;44.20
1468;DHT22;727;48.892;9.544;2022-07-22T13:45:17;34.70;45.70
1468;DHT22;727;48.892;9.544;2022-07-22T13:47:47;34.70;44.50
1468;DHT22;727;48.892;9.544;2022-07-22T13:50:28;34.80;44.40
1468;DHT22;727;48.892;9.544;2022-07-22T13:52:54;34.90;44.70
1468;DHT22;727;48.892;9.544;2022-07-22T13:55:21;35.20;44.70
1468;DHT22;727;48.892;9.544;2022-07-22T13:57:48;35.50;44.20
1468;DHT22;727;48.892;9.544;2022-07-22T14:00:16;35.60;42.70
1468;DHT22;727;48.892;9.544;2022-07-22T14:02:43;35.50;43.10
1468;DHT22;727;48.892;9.544;2022-07-22T14:05:10;35.50;43.70
1468;DHT22;727;48.892;9.544;2022-07-22T14:07:37;35.70;44.40
1468;DHT22;727;48.892;9.544;2022-07-22T14:10:04;35.80;43.00
1468;DHT22;727;48.892;9.544;2022-07-22T14:12:31;35.90;41.90
1468;DHT22;727;48.892;9.544;2022-07-22T14:14:59;35.80;42.70
1468;DHT22;727;48.892;9.544;2022-07-22T14:17:56;35.90;42.50
1468;DHT22;727;48.892;9.544;2022-07-22T14:20:23;35.70;42.60
1468;DHT22;727;48.892;9.544;2022-07-22T14:22:51;35.40;42.10
1468;DHT22;727;48.892;9.544;2022-07-22T14:25:18;34.90;42.50
1468;DHT22;727;48.892;9.544;2022-07-22T14:27:45;34.80;43.30
1468;DHT22;727;48.892;9.544;2022-07-22T14:30:13;34.80;43.20
1468;DHT22;727;48.892;9.544;2022-07-22T14:32:39;34.80;43.30
1468;DHT22;727;48.892;9.544;2022-07-22T14:35:10;35.10;43.40
1468;DHT22;727;48.892;9.544;2022-07-22T14:37:37;35.10;43.20
1468;DHT22;727;48.892;9.544;2022-07-22T14:40:04;35.30;43.40
1468;DHT22;727;48.892;9.544;2022-07-22T14:42:31;35.50;43.10
1468;DHT22;727;48.892;9.544;2022-07-22T14:44:58;35.60;42.10
1468;DHT22;727;48.892;9.544;2022-07-22T14:47:24;35.70;41.60
1468;DHT22;727;48.892;9.544;2022-07-22T14:49:52;35.70;41.40
1468;DHT22;727;48.892;9.544;2022-07-22T14:52:20;35.50;41.50
1468;DHT22;727;48.892;9.544;2022-07-22T14:54:46;35.30;41.00
1468;DHT22;727;48.892;9.544;2022-07-22T14:57:13;35.20;41.60
1468;DHT22;727;48.892;9.544;2022-07-22T14:59:40;35.20;41.60
1468;DHT22;727;48.892;9.544;2022-07-22T15:02:06;35.10;43.20
1468;DHT22;727;48.892;9.544;2022-07-22T15:04:33;35.40;42.70
1468;DHT22;727;48.892;9.544;2022-07-22T15:07:00;35.60;42.30
1468;DHT22;727;48.892;9.544;2022-07-22T15:09:29;35.60;42.10
1468;DHT22;727;48.892;9.544;2022-07-22T15:11:55;35.40;41.80
1468;DHT22;727;48.892;9.544;2022-07-22T15:14:22;35.10;42.00
1468;DHT22;727;48.892;9.544;2022-07-22T15:16:49;35.00;41.90
1468;DHT22;727;48.892;9.544;2022-07-22T15:19:15;35.00;43.10
1468;DHT22;727;48.892;9.544;2022-07-22T15:21:42;35.10;42.60
1468;DHT22;727;48.892;9.544;2022-07-22T15:24:10;35.30;42.50
1468;DHT22;727;48.892;9.544;2022-07-22T15:26:38;35.30;41.20
1468;DHT22;727;48.892;9.544;2022-07-22T15:29:05;35.20;40.50
1468;DHT22;727;48.892;9.544;2022-07-22T15:31:31;35.20;41.30
1468;DHT22;727;48.892;9.544;2022-07-22T15:33:59;35.30;41.50
1468;DHT22;727;48.892;9.544;2022-07-22T15:36:26;35.40;40.40
1468;DHT22;727;48.892;9.544;2022-07-22T15:38:53;35.30;41.00
1468;DHT22;727;48.892;9.544;2022-07-22T15:41:20;35.20;41.70
1468;DHT22;727;48.892;9.544;2022-07-22T15:43:48;35.20;41.80
1468;DHT22;727;48.892;9.544;2022-07-22T15:46:15;35.00;42.40
1468;DHT22;727;48.892;9.544;2022-07-22T15:48:41;34.60;42.30
1468;DHT22;727;48.892;9.544;2022-07-22T15:51:09;34.30;43.20
1468;DHT22;727;48.892;9.544;2022-07-22T15:53:37;34.30;44.50
1468;DHT22;727;48.892;9.544;2022-07-22T15:56:04;34.30;43.70
1468;DHT22;727;48.892;9.544;2022-07-22T15:58:31;34.10;44.10
1468;DHT22;727;48.892;9.544;2022-07-22T16:01:31;34.00;45.60
1468;DHT22;727;48.892;9.544;2022-07-22T16:03:58;34.00;44.10
1468;DHT22;727;48.892;9.544;2022-07-22T16:06:25;34.10;44.70
1468;DHT22;727;48.892;9.544;2022-07-22T16:08:51;34.10;43.60
1468;DHT22;727;48.892;9.544;2022-07-22T16:11:18;34.10;43.50
1468;DHT22;727;48.892;9.544;2022-07-22T16:13:44;34.20;43.70
1468;DHT22;727;48.892;9.544;2022-07-22T16:16:11;34.10;43.00
1468;DHT22;727;48.892;9.544;2022-07-22T16:18:39;34.10;42.60
1468;DHT22;727;48.892;9.544;2022-07-22T16:21:06;34.00;44.60
1468;DHT22;727;48.892;9.544;2022-07-22T16:23:33;33.80;45.70
1468;DHT22;727;48.892;9.544;2022-07-22T16:25:59;33.80;46.30
1468;DHT22;727;48.892;9.544;2022-07-22T16:28:26;33.70;47.20
1468;DHT22;727;48.892;9.544;2022-07-22T16:30:53;33.70;47.10
1468;DHT22;727;48.892;9.544;2022-07-22T16:33:19;33.60;45.60
1468;DHT22;727;48.892;9.544;2022-07-22T16:35:47;33.50;47.40
1468;DHT22;727;48.892;9.544;2022-07-22T16:38:14;33.10;47.30
1468;DHT22;727;48.892;9.544;2022-07-22T16:40:41;32.80;48.70
1468;DHT22;727;48.892;9.544;2022-07-22T16:43:07;32.50;50.30
1468;DHT22;727;48.892;9.544;2022-07-22T16:45:34;32.10;50.70
1468;DHT22;727;48.892;9.544;2022-07-22T16:48:00;31.80;52.20
1468;DHT22;727;48.892;9.544;2022-07-22T16:50:27;31.50;53.90
1468;DHT22;727;48.892;9.544;2022-07-22T16:52:55;31.30;54.90
1468;DHT22;727;48.892;9.544;2022-07-22T16:55:22;31.30;54.90
1468;DHT22;727;48.892;9.544;2022-07-22T16:57:49;31.30;54.70
1468;DHT22;727;48.892;9.544;2022-07-22T17:00:16;31.30;55.00
1468;DHT22;727;48.892;9.544;2022-07-22T17:02:42;31.30;55.70
1468;DHT22;727;48.892;9.544;2022-07-22T17:05:09;31.30;55.90
1468;DHT22;727;48.892;9.544;2022-07-22T17:07:36;31.30;56.60
1468;DHT22;727;48.892;9.544;2022-07-22T17:10:05;31.40;56.90
1468;DHT22;727;48.892;9.544;2022-07-22T17:12:32;31.30;57.10
1468;DHT22;727;48.892;9.544;2022-07-22T17:14:59;31.30;56.70
1468;DHT22;727;48.892;9.544;2022-07-22T17:17:25;31.10;56.70
1468;DHT22;727;48.892;9.544;2022-07-22T17:19:53;30.90;57.50
1468;DHT22;727;48.892;9.544;2022-07-22T17:22:20;30.70;57.60
1468;DHT22;727;48.892;9.544;2022-07-22T17:24:47;30.50;58.00
1468;DHT22;727;48.892;9.544;2022-07-22T17:27:15;30.20;59.80
1468;DHT22;727;48.892;9.544;2022-07-22T17:29:41;29.90;59.70
1468;DHT22;727;48.892;9.544;2022-07-22T17:32:08;29.70;60.30
1468;DHT22;727;48.892;9.544;2022-07-22T17:34:37;29.50;61.50
1468;DHT22;727;48.892;9.544;2022-07-22T17:37:04;29.30;62.30
1468;DHT22;727;48.892;9.544;2022-07-22T17:39:31;29.00;62.90
1468;DHT22;727;48.892;9.544;2022-07-22T17:41:58;28.80;64.30
1468;DHT22;727;48.892;9.544;2022-07-22T17:44:26;28.50;66.10
1468;DHT22;727;48.892;9.544;2022-07-22T17:46:52;28.30;66.00
1468;DHT22;727;48.892;9.544;2022-07-22T17:49:19;28.20;65.40
1468;DHT22;727;48.892;9.544;2022-07-22T17:51:46;27.90;65.00
1468;DHT22;727;48.892;9.544;2022-07-22T17:54:13;27.70;63.90
1468;DHT22;727;48.892;9.544;2022-07-22T17:56:41;27.50;65.50
1468;DHT22;727;48.892;9.544;2022-07-22T17:59:08;27.40;65.40
1468;DHT22;727;48.892;9.544;2022-07-22T18:01:38;27.30;66.00
1468;DHT22;727;48.892;9.544;2022-07-22T18:04:05;27.20;67.60
1468;DHT22;727;48.892;9.544;2022-07-22T18:06:32;27.20;68.30
1468;DHT22;727;48.892;9.544;2022-07-22T18:08:59;27.10;67.90
1468;DHT22;727;48.892;9.544;2022-07-22T18:11:26;27.00;68.50
1468;DHT22;727;48.892;9.544;2022-07-22T18:13:53;26.90;69.10
1468;DHT22;727;48.892;9.544;2022-07-22T18:16:20;26.80;68.30
1468;DHT22;727;48.892;9.544;2022-07-22T18:18:48;26.80;68.30
1468;DHT22;727;48.892;9.544;2022-07-22T18:21:15;26.70;67.90
1468;DHT22;727;48.892;9.544;2022-07-22T18:23:42;26.70;69.20
1468;DHT22;727;48.892;9.544;2022-07-22T18:26:09;26.60;70.90
1468;DHT22;727;48.892;9.544;2022-07-22T18:28:36;26.60;72.00
1468;DHT22;727;48.892;9.544;2022-07-22T18:31:06;26.60;72.70
1468;DHT22;727;48.892;9.544;2022-07-22T18:33:33;26.60;73.40
1468;DHT22;727;48.892;9.544;2022-07-22T18:36:01;26.60;73.00
1468;DHT22;727;48.892;9.544;2022-07-22T18:38:28;26.60;72.90
1468;DHT22;727;48.892;9.544;2022-07-22T18:40:55;26.60;73.60
1468;DHT22;727;48.892;9.544;2022-07-22T18:43:22;26.60;74.30
1468;DHT22;727;48.892;9.544;2022-07-22T18:45:48;26.50;74.40
1468;DHT22;727;48.892;9.544;2022-07-22T18:48:15;26.50;74.50
1468;DHT22;727;48.892;9.544;2022-07-22T18:50:43;26.50;73.60
1468;DHT22;727;48.892;9.544;2022-07-22T18:53:11;26.50;74.40
1468;DHT22;727;48.892;9.544;2022-07-22T18:55:37;26.40;74.70
1468;DHT22;727;48.892;9.544;2022-07-22T18:58:04;26.40;74.80
1468;DHT22;727;48.892;9.544;2022-07-22T19:00:33;26.30;74.60
1468;DHT22;727;48.892;9.544;2022-07-22T19:03:01;26.30;74.00
1468;DHT22;727;48.892;9.544;2022-07-22T19:05:27;26.40;69.60
1468;DHT22;727;48.892;9.544;2022-07-22T19:07:55;26.50;69.10
1468;DHT22;727;48.892;9.544;2022-07-22T19:10:23;26.50;67.50
1468;DHT22;727;48.892;9.544;2022-07-22T19:12:50;26.60;66.60
1468;DHT22;727;48.892;9.544;2022-07-22T19:15:16;26.60;66.30
1468;DHT22;727;48.892;9.544;2022-07-22T19:17:43;26.60;66.40
1468;DHT22;727;48.892;9.544;2022-07-22T19:20:11;26.50;66.60
1468;DHT22;727;48.892;9.544;2022-07-22T19:22:38;26.50;65.70
1468;DHT22;727;48.892;9.544;2022-07-22T19:25:05;26.40;66.60
1468;DHT22;727;48.892;9.544;2022-07-22T19:27:33;26.40;67.20
1468;DHT22;727;48.892;9.544;2022-07-22T19:30:00;26.30;67.60
1468;DHT22;727;48.892;9.544;2022-07-22T19:32:27;26.20;67.80
1468;DHT22;727;48.892;9.544;2022-07-22T19:34:53;26.20;67.10
1468;DHT22;727;48.892;9.544;2022-07-22T19:37:20;26.20;68.50
1468;DHT22;727;48.892;9.544;2022-07-22T19:39:47;26.10;68.10
1468;DHT22;727;48.892;9.544;2022-07-22T19:42:15;26.10;69.30
1468;DHT22;727;48.892;9.544;2022-07-22T19:44:43;26.10;71.50
1468;DHT22;727;48.892;9.544;2022-07-22T19:47:10;26.00;74.20
1468;DHT22;727;48.892;9.544;2022-07-22T19:49:36;25.80;75.90
1468;DHT22;727;48.892;9.544;2022-07-22T19:52:03;25.70;77.50
1468;DHT22;727;48.892;9.544;2022-07-22T19:54:30;25.60;78.40
1468;DHT22;727;48.892;9.544;2022-07-22T19:56:58;25.40;79.20
1468;DHT22;727;48.892;9.544;2022-07-22T19:59:25;25.30;80.00
1468;DHT22;727;48.892;9.544;2022-07-22T20:01:53;25.10;80.60
1468;DHT22;727;48.892;9.544;2022-07-22T20:04:20;25.00;81.50
1468;DHT22;727;48.892;9.544;2022-07-22T20:06:46;24.90;82.40
1468;DHT22;727;48.892;9.544;2022-07-22T20:09:13;24.80;82.60
1468;DHT22;727;48.892;9.544;2022-07-22T20:11:40;24.70;83.30
1468;DHT22;727;48.892;9.544;2022-07-22T20:14:06;24.60;84.20
1468;DHT22;727;48.892;9.544;2022-07-22T20:16:33;24.50;84.50
1468;DHT22;727;48.892;9.544;2022-07-22T20:19:02;24.50;84.60
1468;DHT22;727;48.892;9.544;2022-07-22T20:21:28;24.40;86.00
1468;DHT22;727;48.892;9.544;2022-07-22T20:23:55;24.40;86.70
1468;DHT22;727;48.892;9.544;2022-07-22T20:26:22;24.40;86.40
1468;DHT22;727;48.892;9.544;2022-07-22T20:28:49;24.30;86.70
1468;DHT22;727;48.892;9.544;2022-07-22T20:31:16;24.30;87.10
1468;DHT22;727;48.892;9.544;2022-07-22T20:33:43;24.30;86.40
1468;DHT22;727;48.892;9.544;2022-07-22T20:36:12;24.20;87.00
1468;DHT22;727;48.892;9.544;2022-07-22T20:38:39;24.20;87.20
1468;DHT22;727;48.892;9.544;2022-07-22T20:41:06;24.10;87.50
1468;DHT22;727;48.892;9.544;2022-07-22T20:43:33;24.10;88.50
1468;DHT22;727;48.892;9.544;2022-07-22T20:46:00;24.00;89.40
1468;DHT22;727;48.892;9.544;2022-07-22T20:48:27;23.90;90.00
1468;DHT22;727;48.892;9.544;2022-07-22T20:50:53;23.90;90.10
1468;DHT22;727;48.892;9.544;2022-07-22T20:53:21;23.80;89.80
1468;DHT22;727;48.892;9.544;2022-07-22T20:55:49;23.70;88.80
1468;DHT22;727;48.892;9.544;2022-07-22T20:58:16;23.70;89.50
1468;DHT22;727;48.892;9.544;2022-07-22T21:00:42;23.60;89.30
1468;DHT22;727;48.892;9.544;2022-07-22T21:03:09;23.60;89.50
1468;DHT22;727;48.892;9.544;2022-07-22T21:05:36;23.50;89.20
1468;DHT22;727;48.892;9.544;2022-07-22T21:08:03;23.40;88.50
1468;DHT22;727;48.892;9.544;2022-07-22T21:10:31;23.40;89.00
1468;DHT22;727;48.892;9.544;2022-07-22T21:12:58;23.40;89.20
1468;DHT22;727;48.892;9.544;2022-07-22T21:15:24;23.30;89.90
1468;DHT22;727;48.892;9.544;2022-07-22T21:17:52;23.30;90.30
1468;DHT22;727;48.892;9.544;2022-07-22T21:20:18;23.30;90.30
1468;DHT22;727;48.892;9.544;2022-07-22T21:22:45;23.40;90.70
1468;DHT22;727;48.892;9.544;2022-07-22T21:25:12;23.40;91.00
1468;DHT22;727;48.892;9.544;2022-07-22T21:27:40;23.30;91.60
1468;DHT22;727;48.892;9.544;2022-07-22T21:30:07;23.20;91.40
1468;DHT22;727;48.892;9.544;2022-07-22T21:32:35;23.30;91.80
1468;DHT22;727;48.892;9.544;2022-07-22T21:35:02;23.30;91.90
1468;DHT22;727;48.892;9.544;2022-07-22T21:37:29;23.30;91.70
1468;DHT22;727;48.892;9.544;2022-07-22T21:39:56;23.30;91.50
1468;DHT22;727;48.892;9.544;2022-07-22T21:42:22;23.40;91.70
1468;DHT22;727;48.892;9.544;2022-07-22T21:44:50;23.30;91.90
1468;DHT22;727;48.892;9.544;2022-07-22T21:47:17;23.20;92.00
1468;DHT22;727;48.892;9.544;2022-07-22T21:49:44;23.10;92.20
1468;DHT22;727;48.892;9.544;2022-07-22T21:52:11;23.10;92.00
1468;DHT22;727;48.892;9.544;2022-07-22T21:54:38;23.10;92.00
1468;DHT22;727;48.892;9.544;2022-07-22T21:57:04;23.20;91.70
1468;DHT22;727;48.892;9.544;2022-07-22T21:59:31;23.30;91.80